createdAt,value
2023-01-09T00:00:49.028Z,20.25
2023-01-09T00:03:16.743Z,22.45
2023-01-09T00:05:43.369Z,21.08
2023-01-09T00:08:09.977Z,19.85
2023-01-09T00:10:36.688Z,21.70
2023-01-09T00:13:03.473Z,21.75
2023-01-09T00:15:30.093Z,21.42
2023-01-09T00:17:56.702Z,21.75
2023-01-09T00:20:23.264Z,22.90
2023-01-09T00:22:50.017Z,21.75
2023-01-09T00:25:16.769Z,21.67
2023-01-09T00:27:43.410Z,23.42
2023-01-09T00:30:11.253Z,25.15
2023-01-09T00:32:38.968Z,26.73
2023-01-09T00:35:05.992Z,28.10
2023-01-09T00:37:32.595Z,25.48
2023-01-09T00:39:59.185Z,25.77
2023-01-09T00:42:30.681Z,23.50
2023-01-09T00:45:01.179Z,22.80
2023-01-09T00:47:33.605Z,23.52
2023-01-09T00:50:05.170Z,22.67
2023-01-09T00:52:35.941Z,23.42
2023-01-09T00:55:03.258Z,23.50
2023-01-09T00:57:30.476Z,23.10
2023-01-09T00:59:58.462Z,22.23
2023-01-09T01:02:25.831Z,21.17
2023-01-09T01:05:07.923Z,19.00
2023-01-09T01:07:43.235Z,18.77
2023-01-09T01:10:16.276Z,17.25
2023-01-09T01:12:44.174Z,17.88
2023-01-09T01:15:11.493Z,16.27
2023-01-09T01:17:39.622Z,16.30
2023-01-09T01:20:09.167Z,15.25
2023-01-09T01:22:35.841Z,15.50
2023-01-09T01:25:03.686Z,15.23
2023-01-09T01:27:30.381Z,14.63
2023-01-09T01:29:57.131Z,15.02
2023-01-09T01:32:24.259Z,15.18
2023-01-09T01:34:50.937Z,14.48
2023-01-09T01:37:17.566Z,13.52
2023-01-09T01:39:44.194Z,14.73
2023-01-09T01:42:13.598Z,14.02
2023-01-09T01:45:10.847Z,14.65
2023-01-09T01:47:45.611Z,14.10
2023-01-09T01:50:19.645Z,13.48
2023-01-09T01:52:52.632Z,14.75
2023-01-09T01:55:20.295Z,14.32
2023-01-09T01:57:53.739Z,15.18
2023-01-09T02:00:25.783Z,14.07
2023-01-09T02:02:52.500Z,14.23
2023-01-09T02:05:19.288Z,13.88
2023-01-09T02:07:45.906Z,13.95
2023-01-09T02:10:12.515Z,13.73
2023-01-09T02:12:39.088Z,13.98
2023-01-09T02:15:08.285Z,12.98
2023-01-09T02:18:01.787Z,12.48
2023-01-09T02:20:40.084Z,12.98
2023-01-09T02:23:29.654Z,13.55
2023-01-09T02:26:08.269Z,13.50
2023-01-09T02:29:12.512Z,13.48
2023-01-09T02:32:10.618Z,13.20
2023-01-09T02:35:07.791Z,13.48
2023-01-09T02:37:49.515Z,13.30
2023-01-09T02:40:32.020Z,12.75
2023-01-09T02:43:00.815Z,13.48
2023-01-09T02:45:28.546Z,14.25
2023-01-09T02:47:55.236Z,13.35
2023-01-09T02:50:27.917Z,13.43
2023-01-09T02:53:25.217Z,13.63
2023-01-09T02:58:50.458Z,13.55
2023-01-09T03:01:32.562Z,12.60
2023-01-09T03:04:12.768Z,12.52
2023-01-09T03:06:49.105Z,13.27
2023-01-09T03:11:52.118Z,13.43
2023-01-09T03:14:22.842Z,13.60
2023-01-09T03:16:56.757Z,13.13
2023-01-09T03:19:27.136Z,13.15
2023-01-09T03:21:55.460Z,13.50
2023-01-09T03:24:22.319Z,13.98
2023-01-09T03:26:48.934Z,13.40
2023-01-09T03:29:15.601Z,13.40
2023-01-09T03:31:43.364Z,13.77
2023-01-09T03:34:10.346Z,12.80
2023-01-09T03:36:37.188Z,13.02
2023-01-09T03:39:03.983Z,12.93
2023-01-09T03:41:30.690Z,15.13
2023-01-09T03:43:57.310Z,13.27
2023-01-09T03:46:24.488Z,12.48
2023-01-09T03:48:51.220Z,14.45
2023-01-09T03:51:17.944Z,12.40
2023-01-09T03:53:44.719Z,12.15
2023-01-09T03:56:11.389Z,12.40
2023-01-09T03:58:38.037Z,13.07
2023-01-09T04:01:09.512Z,13.25
2023-01-09T04:03:53.718Z,14.05
2023-01-09T04:06:20.509Z,14.52
2023-01-09T04:08:47.147Z,14.60
2023-01-09T04:11:15.851Z,15.35
2023-01-09T04:13:42.826Z,15.07
2023-01-09T04:16:09.492Z,14.98
2023-01-09T04:18:36.190Z,17.35
2023-01-09T04:21:02.794Z,18.50
2023-01-09T04:23:29.393Z,20.38
2023-01-09T04:25:55.991Z,21.45
2023-01-09T04:28:22.573Z,20.77
2023-01-09T04:30:49.173Z,21.85
2023-01-09T04:33:15.753Z,21.13
2023-01-09T04:35:42.405Z,21.35
2023-01-09T04:38:09.057Z,22.80
2023-01-09T04:40:35.721Z,22.60
2023-01-09T04:43:02.315Z,20.52
2023-01-09T04:45:29.127Z,21.90
2023-01-09T04:47:55.754Z,20.30
2023-01-09T04:50:22.417Z,20.80
2023-01-09T04:52:49.003Z,21.00
2023-01-09T04:55:15.662Z,19.70
2023-01-09T04:57:42.225Z,20.58
2023-01-09T05:00:12.257Z,20.80
2023-01-09T05:02:39.483Z,22.38
2023-01-09T05:05:11.136Z,21.33
2023-01-09T05:07:38.038Z,19.42
2023-01-09T05:10:05.257Z,21.77
2023-01-09T05:12:31.942Z,20.10
2023-01-09T05:14:58.760Z,20.08
2023-01-09T05:17:25.400Z,20.38
2023-01-09T05:19:52.147Z,20.20
2023-01-09T05:22:18.751Z,19.85
2023-01-09T05:24:45.383Z,20.20
2023-01-09T05:27:12.041Z,20.42
2023-01-09T05:29:38.730Z,20.10
2023-01-09T05:32:05.373Z,18.45
2023-01-09T05:34:33.824Z,18.08
2023-01-09T05:37:00.557Z,18.30
2023-01-09T05:39:47.415Z,18.88
2023-01-09T05:44:57.857Z,17.73
2023-01-09T05:47:31.661Z,20.15
2023-01-09T05:49:58.292Z,20.88
2023-01-09T05:52:24.931Z,21.27
2023-01-09T05:54:51.581Z,20.90
2023-01-09T05:57:18.159Z,21.70
2023-01-09T05:59:44.863Z,22.52
2023-01-09T06:02:11.569Z,20.83
2023-01-09T06:04:38.355Z,20.20
2023-01-09T06:07:05.196Z,20.73
2023-01-09T06:09:31.880Z,19.20
2023-01-09T06:11:58.456Z,20.10
2023-01-09T06:14:25.033Z,18.80
2023-01-09T06:16:51.589Z,18.05
2023-01-09T06:19:18.136Z,19.35
2023-01-09T06:21:47.885Z,19.65
2023-01-09T06:24:17.761Z,19.90
2023-01-09T06:26:44.325Z,19.67
2023-01-09T06:29:11.200Z,18.30
2023-01-09T06:31:37.788Z,19.85
2023-01-09T06:34:04.466Z,19.35
2023-01-09T06:36:31.016Z,20.83
2023-01-09T06:38:57.587Z,19.58
2023-01-09T06:41:24.207Z,20.15
2023-01-09T06:43:50.731Z,20.90
2023-01-09T06:46:17.279Z,20.23
2023-01-09T06:48:43.830Z,20.25
2023-01-09T06:51:10.387Z,21.35
2023-01-09T06:53:36.934Z,22.15
2023-01-09T06:56:03.675Z,22.25
2023-01-09T06:58:30.207Z,22.65
2023-01-09T07:00:58.818Z,22.52
2023-01-09T07:03:25.541Z,23.40
2023-01-09T07:05:52.150Z,24.20
2023-01-09T07:08:18.684Z,23.05
2023-01-09T07:10:45.338Z,23.38
2023-01-09T07:13:11.941Z,23.85
2023-01-09T07:15:38.621Z,22.38
2023-01-09T07:18:05.368Z,22.63
2023-01-09T07:20:31.930Z,24.58
2023-01-09T07:22:58.895Z,23.67
2023-01-09T07:25:25.477Z,23.67
2023-01-09T07:27:52.031Z,23.88
2023-01-09T07:30:18.662Z,23.02
2023-01-09T07:32:45.273Z,22.38
2023-01-09T07:35:11.843Z,23.55
2023-01-09T07:37:38.489Z,22.77
2023-01-09T07:40:05.572Z,23.13
2023-01-09T07:42:32.618Z,22.20
2023-01-09T07:44:59.203Z,21.20
2023-01-09T07:47:25.745Z,22.80
2023-01-09T07:49:52.308Z,21.88
2023-01-09T07:52:19.223Z,21.23
2023-01-09T07:54:45.742Z,22.63
2023-01-09T07:57:12.321Z,21.63
2023-01-09T07:59:38.875Z,21.70
2023-01-09T08:02:07.434Z,20.67
2023-01-09T08:04:34.055Z,21.20
2023-01-09T08:07:00.654Z,21.23
2023-01-09T08:09:27.257Z,22.42
2023-01-09T08:11:54.178Z,21.35
2023-01-09T08:14:21.415Z,21.40
2023-01-09T08:16:47.949Z,21.70
2023-01-09T08:19:14.543Z,21.75
2023-01-09T08:21:41.139Z,23.00
2023-01-09T08:24:07.725Z,23.08
2023-01-09T08:26:34.293Z,22.67
2023-01-09T08:29:00.851Z,24.55
2023-01-09T08:31:27.410Z,24.63
2023-01-09T08:33:54.135Z,23.83
2023-01-09T08:36:20.827Z,23.98
2023-01-09T08:38:47.413Z,24.48
2023-01-09T08:41:29.344Z,23.77
2023-01-09T08:44:11.189Z,22.45
2023-01-09T08:46:53.241Z,23.85
2023-01-09T08:49:20.723Z,23.80
2023-01-09T08:51:47.261Z,21.85
2023-01-09T08:54:14.011Z,21.38
2023-01-09T08:56:40.545Z,22.83
2023-01-09T08:59:07.110Z,23.45
2023-01-09T09:01:33.699Z,21.58
2023-01-09T09:04:00.905Z,22.38
2023-01-09T09:06:27.579Z,22.75
2023-01-09T09:08:54.165Z,22.75
2023-01-09T09:11:20.724Z,23.17
2023-01-09T09:13:47.289Z,22.30
2023-01-09T09:16:13.930Z,21.42
2023-01-09T09:18:40.486Z,21.10
2023-01-09T09:21:07.168Z,20.95
2023-01-09T09:23:33.731Z,22.05
2023-01-09T09:26:00.362Z,21.48
2023-01-09T09:28:26.911Z,21.00
2023-01-09T09:30:53.475Z,19.17
2023-01-09T09:33:20.043Z,17.42
2023-01-09T09:35:46.654Z,17.80
2023-01-09T09:38:13.472Z,15.45
2023-01-09T09:40:56.771Z,15.40
2023-01-09T09:43:48.734Z,15.45
2023-01-09T09:46:31.099Z,13.95
2023-01-09T09:49:07.070Z,14.10
2023-01-09T09:51:43.491Z,14.02
2023-01-09T09:56:50.217Z,13.63
2023-01-09T09:59:21.335Z,14.80
2023-01-09T10:01:51.866Z,14.65
2023-01-09T10:04:22.813Z,16.85
2023-01-09T10:06:56.768Z,14.88
2023-01-09T10:09:51.039Z,15.93
2023-01-09T10:12:29.988Z,16.85
2023-01-09T10:14:59.444Z,15.95
2023-01-09T10:17:26.003Z,17.83
2023-01-09T10:20:11.751Z,15.95
2023-01-09T10:22:54.670Z,15.60
2023-01-09T10:25:40.652Z,10.82
2023-01-09T10:28:22.815Z,5.23
2023-01-09T10:30:58.739Z,3.63
2023-01-09T10:33:43.079Z,4.90
2023-01-09T10:36:40.209Z,4.22
2023-01-09T10:39:17.815Z,4.40
2023-01-09T10:41:51.297Z,4.50
2023-01-09T10:44:24.383Z,4.80
2023-01-09T10:46:56.118Z,4.22
2023-01-09T10:49:24.101Z,4.93
2023-01-09T10:51:57.540Z,4.40
2023-01-09T10:54:24.765Z,4.82
2023-01-09T10:56:56.429Z,4.38
2023-01-09T10:59:24.405Z,3.65
2023-01-09T11:01:53.571Z,3.38
2023-01-09T11:04:27.369Z,3.00
2023-01-09T11:07:00.238Z,2.47
2023-01-09T11:09:26.924Z,2.13
2023-01-09T11:11:53.510Z,1.30
2023-01-09T11:14:20.075Z,0.70
2023-01-09T11:16:56.364Z,0.57
2023-01-09T11:19:24.115Z,0.50
2023-01-09T11:21:50.812Z,0.57
2023-01-09T11:24:29.538Z,0.65
2023-01-09T11:27:11.309Z,0.50
2023-01-09T11:29:38.557Z,0.50
2023-01-09T11:32:05.665Z,0.30
2023-01-09T11:34:36.292Z,0.40
2023-01-09T11:37:07.889Z,0.43
2023-01-09T11:39:41.243Z,0.30
2023-01-09T11:42:20.239Z,0.40
2023-01-09T11:44:46.828Z,0.73
2023-01-09T11:47:38.401Z,0.50
2023-01-09T11:50:26.995Z,0.10
2023-01-09T11:53:15.161Z,0.30
2023-01-09T11:55:43.286Z,0.50
2023-01-09T11:58:14.585Z,0.43
2023-01-09T12:01:01.335Z,0.45
2023-01-09T12:03:58.483Z,0.40
2023-01-09T12:06:40.364Z,0.40
2023-01-09T12:09:11.999Z,0.40
2023-01-09T12:11:54.269Z,0.60
2023-01-09T12:14:42.840Z,0.38
2023-01-09T12:17:19.266Z,0.22
2023-01-09T12:22:32.046Z,0.63
2023-01-09T12:25:25.607Z,0.60
2023-01-09T12:28:18.803Z,0.50
2023-01-09T12:31:01.216Z,0.70
2023-01-09T12:33:44.089Z,0.52
2023-01-09T12:36:20.495Z,0.60
2023-01-09T12:41:21.836Z,0.32
2023-01-09T12:43:49.386Z,0.40
2023-01-09T12:46:19.070Z,0.30
2023-01-09T12:49:11.254Z,0.40
2023-01-09T12:51:44.352Z,0.40
2023-01-09T12:54:19.796Z,0.43
2023-01-09T12:56:56.480Z,0.50
2023-01-09T12:59:31.977Z,0.40
2023-01-09T13:02:07.870Z,0.70
2023-01-09T13:04:41.511Z,0.70
2023-01-09T13:07:26.455Z,0.70
2023-01-09T13:10:02.444Z,0.70
2023-01-09T13:12:36.860Z,0.55
2023-01-09T13:15:15.214Z,0.47
2023-01-09T13:17:48.180Z,0.60
2023-01-09T13:20:33.643Z,0.43
2023-01-09T13:23:02.853Z,0.60
2023-01-09T13:25:47.434Z,0.60
2023-01-09T13:28:16.429Z,0.50
2023-01-09T13:30:50.641Z,0.50
2023-01-09T13:33:23.477Z,0.60
2023-01-09T13:35:55.960Z,0.73
2023-01-09T13:38:25.597Z,0.50
2023-01-09T13:41:27.472Z,0.60
2023-01-09T13:43:57.081Z,0.70
2023-01-09T13:46:34.145Z,0.50
2023-01-09T13:49:01.318Z,2.05
2023-01-09T13:51:37.066Z,1.73
2023-01-09T13:54:04.703Z,0.82
2023-01-09T13:56:31.250Z,0.57
2023-01-09T13:58:59.988Z,0.57
2023-01-09T14:01:34.415Z,1.00
2023-01-09T14:04:35.499Z,0.70
2023-01-09T14:07:20.516Z,0.60
2023-01-09T14:10:08.625Z,1.48
2023-01-09T14:12:41.091Z,1.05
2023-01-09T14:15:26.845Z,0.75
2023-01-09T14:18:04.180Z,0.70
2023-01-09T14:20:38.735Z,0.80
2023-01-09T14:26:00.191Z,1.17
2023-01-09T14:28:30.531Z,1.25
2023-01-09T14:30:57.078Z,0.93
2023-01-09T14:33:25.130Z,0.80
2023-01-09T14:36:15.683Z,0.90
2023-01-09T14:39:00.998Z,0.70
2023-01-09T14:42:02.442Z,0.60
2023-01-09T14:44:31.937Z,0.93
2023-01-09T14:47:10.049Z,0.70
2023-01-09T14:49:43.565Z,0.60
2023-01-09T14:52:23.348Z,0.60
2023-01-09T14:54:51.979Z,0.45
2023-01-09T14:57:28.599Z,0.57
2023-01-09T15:00:00.504Z,0.80
2023-01-09T15:02:32.557Z,0.70
2023-01-09T15:05:06.005Z,0.82
2023-01-09T15:07:40.484Z,0.80
2023-01-09T15:10:14.689Z,0.60
2023-01-09T15:12:41.382Z,0.40
2023-01-09T15:15:15.335Z,0.75
2023-01-09T15:17:43.439Z,0.70
2023-01-09T15:20:22.206Z,0.73
2023-01-09T15:22:52.777Z,0.80
2023-01-09T15:25:40.859Z,0.95
2023-01-09T15:28:29.329Z,0.80
2023-01-09T15:31:01.120Z,0.88
2023-01-09T15:33:27.936Z,1.38
2023-01-09T15:36:00.347Z,1.60
2023-01-09T15:38:29.318Z,2.65
2023-01-09T15:41:01.290Z,3.30
2023-01-09T15:43:30.409Z,2.97
2023-01-09T15:45:58.312Z,3.42
2023-01-09T15:48:29.780Z,3.45
2023-01-09T15:50:56.377Z,3.45
2023-01-09T15:53:25.463Z,5.40
2023-01-09T15:56:08.028Z,6.28
2023-01-09T15:58:38.652Z,5.55
2023-01-09T16:01:34.458Z,6.15
2023-01-09T16:04:11.964Z,5.18
2023-01-09T16:06:45.554Z,9.88
2023-01-09T16:09:16.945Z,11.65
2023-01-09T16:11:48.174Z,10.48
2023-01-09T16:14:21.799Z,9.93
2023-01-09T16:16:51.809Z,9.27
2023-01-09T16:19:33.885Z,9.77
2023-01-09T16:22:03.406Z,8.13
2023-01-09T16:24:45.346Z,8.52
2023-01-09T16:27:21.314Z,8.45
2023-01-09T16:29:50.525Z,7.20
2023-01-09T16:32:22.191Z,6.75
2023-01-09T16:34:58.788Z,6.68
2023-01-09T16:37:26.159Z,6.95
2023-01-09T16:40:12.575Z,8.65
2023-01-09T16:42:54.375Z,7.10
2023-01-09T16:45:21.358Z,8.40
2023-01-09T16:47:47.978Z,8.07
2023-01-09T16:50:14.534Z,5.82
2023-01-09T16:52:41.045Z,3.67
2023-01-09T16:55:08.075Z,3.78
2023-01-09T16:57:35.315Z,2.00
2023-01-09T17:00:02.308Z,2.60
2023-01-09T17:02:28.922Z,2.78
2023-01-09T17:04:56.022Z,2.65
2023-01-09T17:07:27.920Z,2.20
2023-01-09T17:09:54.440Z,2.50
2023-01-09T17:12:24.265Z,2.33
2023-01-09T17:14:51.137Z,2.65
2023-01-09T17:17:18.435Z,2.90
2023-01-09T17:19:47.051Z,2.78
2023-01-09T17:22:14.435Z,8.18
2023-01-09T17:24:56.702Z,14.93
2023-01-09T17:27:46.451Z,5.57
2023-01-09T17:30:18.988Z,3.70
2023-01-09T17:32:46.314Z,3.03
2023-01-09T17:35:13.668Z,4.15
2023-01-09T17:37:40.235Z,4.13
2023-01-09T17:40:23.128Z,3.97
2023-01-09T17:42:49.910Z,4.68
2023-01-09T17:45:16.517Z,5.25
2023-01-09T17:47:43.168Z,9.27
2023-01-09T17:50:19.667Z,9.73
2023-01-09T17:52:47.955Z,8.10
2023-01-09T17:55:14.842Z,8.00
2023-01-09T17:57:43.622Z,9.90
2023-01-09T18:00:24.862Z,7.63
2023-01-09T18:02:52.403Z,8.48
2023-01-09T18:05:19.411Z,7.43
2023-01-09T18:07:46.009Z,8.60
2023-01-09T18:10:15.407Z,6.18
2023-01-09T18:12:42.010Z,5.45
2023-01-09T18:15:09.117Z,6.57
2023-01-09T18:17:35.739Z,6.90
2023-01-09T18:20:02.343Z,7.88
2023-01-09T18:22:29.611Z,7.82
2023-01-09T18:24:59.333Z,6.88
2023-01-09T18:27:29.433Z,6.60
2023-01-09T18:29:57.199Z,6.35
2023-01-09T18:32:24.577Z,7.60
2023-01-09T18:34:51.095Z,7.22
2023-01-09T18:37:17.686Z,6.45
2023-01-09T18:39:44.322Z,6.45
2023-01-09T18:42:10.890Z,6.78
2023-01-09T18:44:37.511Z,7.05
2023-01-09T18:47:04.141Z,7.45
2023-01-09T18:49:30.709Z,7.28
2023-01-09T18:51:57.406Z,7.18
2023-01-09T18:54:23.950Z,6.05
2023-01-09T18:56:50.815Z,6.65
2023-01-09T18:59:17.372Z,7.35
2023-01-09T19:01:43.983Z,7.10
2023-01-09T19:04:10.565Z,6.30
2023-01-09T19:06:37.827Z,8.23
2023-01-09T19:09:05.311Z,8.23
2023-01-09T19:11:31.994Z,8.45
2023-01-09T19:13:59.103Z,7.72
2023-01-09T19:16:25.787Z,8.27
2023-01-09T19:18:52.414Z,7.97
2023-01-09T19:21:21.245Z,7.93
2023-01-09T19:23:49.101Z,8.43
2023-01-09T19:26:20.503Z,8.15
2023-01-09T19:28:48.193Z,7.90
2023-01-09T19:31:18.022Z,8.10
2023-01-09T19:33:45.240Z,8.20
2023-01-09T19:36:12.043Z,7.88
2023-01-09T19:38:38.686Z,7.20
2023-01-09T19:41:22.367Z,7.75
2023-01-09T19:43:48.963Z,7.63
2023-01-09T19:46:18.650Z,8.63
2023-01-09T19:48:46.176Z,7.78
2023-01-09T19:51:15.572Z,7.65
2023-01-09T19:53:42.634Z,7.82
2023-01-09T19:56:11.769Z,6.60
2023-01-09T19:58:38.962Z,7.50
2023-01-09T20:01:07.655Z,7.57
2023-01-09T20:03:34.353Z,7.93
2023-01-09T20:06:06.503Z,7.80
2023-01-09T20:08:33.582Z,7.95
2023-01-09T20:11:03.426Z,7.93
2023-01-09T20:13:32.125Z,7.57
2023-01-09T20:16:00.472Z,5.82
2023-01-09T20:18:27.048Z,5.03
2023-01-09T20:20:53.854Z,4.90
2023-01-09T20:23:22.283Z,6.30
2023-01-09T20:25:51.219Z,5.90
2023-01-09T20:28:18.128Z,4.25
2023-01-09T20:30:47.196Z,4.40
2023-01-09T20:33:15.242Z,4.65
2023-01-09T20:35:43.848Z,5.55
2023-01-09T20:38:12.744Z,5.93
2023-01-09T20:40:39.987Z,5.93
2023-01-09T20:43:08.578Z,5.57
2023-01-09T20:45:35.317Z,4.60
2023-01-09T20:48:06.162Z,5.10
2023-01-09T20:50:33.204Z,4.70
2023-01-09T20:52:59.872Z,4.75
2023-01-09T20:55:26.520Z,5.20
2023-01-09T20:57:53.144Z,3.80
2023-01-09T21:00:20.689Z,4.05
2023-01-09T21:02:47.300Z,3.58
2023-01-09T21:05:14.274Z,3.78
2023-01-09T21:07:41.243Z,3.70
2023-01-09T21:10:08.367Z,4.55
2023-01-09T21:12:34.960Z,4.30
2023-01-09T21:15:05.085Z,3.97
2023-01-09T21:17:35.308Z,4.30
2023-01-09T21:20:02.260Z,4.32
2023-01-09T21:22:32.336Z,3.63
2023-01-09T21:24:59.181Z,4.05
2023-01-09T21:27:31.372Z,3.40
2023-01-09T21:29:57.964Z,4.47
2023-01-09T21:32:24.519Z,3.63
2023-01-09T21:34:51.116Z,3.38
2023-01-09T21:37:17.761Z,3.50
2023-01-09T21:39:44.454Z,3.15
2023-01-09T21:42:26.328Z,3.50
2023-01-09T21:45:08.132Z,3.47
2023-01-09T21:47:34.635Z,3.25
2023-01-09T21:50:01.202Z,3.05
2023-01-09T21:52:27.800Z,3.90
2023-01-09T21:54:54.400Z,3.03
2023-01-09T21:57:21.055Z,3.10
2023-01-09T21:59:47.593Z,3.10
2023-01-09T22:02:15.955Z,2.97
2023-01-09T22:04:43.132Z,2.83
2023-01-09T22:07:10.413Z,2.45
2023-01-09T22:09:39.692Z,2.55
2023-01-09T22:12:06.975Z,2.60
2023-01-09T22:14:33.519Z,2.38
2023-01-09T22:17:00.065Z,2.80
2023-01-09T22:19:28.151Z,2.30
2023-01-09T22:21:54.849Z,2.50
2023-01-09T22:24:21.814Z,2.83
2023-01-09T22:26:51.913Z,2.50
2023-01-09T22:29:22.060Z,2.90
2023-01-09T22:31:48.711Z,2.78
2023-01-09T22:34:17.460Z,2.38
2023-01-09T22:36:45.387Z,2.30
2023-01-09T22:39:14.468Z,2.70
2023-01-09T22:41:41.601Z,2.40
2023-01-09T22:44:11.007Z,2.38
2023-01-09T22:46:38.222Z,2.00
2023-01-09T22:49:04.925Z,2.42
2023-01-09T22:51:33.724Z,1.98
2023-01-09T22:54:01.055Z,2.03
2023-01-09T22:56:27.969Z,2.25
2023-01-09T22:58:58.392Z,1.65
2023-01-09T23:01:25.197Z,2.15
2023-01-09T23:03:51.728Z,1.60
2023-01-09T23:06:20.623Z,1.70
2023-01-09T23:08:50.291Z,1.77
2023-01-09T23:11:41.595Z,1.20
2023-01-09T23:14:08.210Z,1.08
2023-01-09T23:16:34.845Z,1.50
2023-01-09T23:19:01.436Z,1.05
2023-01-09T23:21:28.186Z,1.13
2023-01-09T23:23:54.730Z,1.35
2023-01-09T23:26:21.307Z,1.25
2023-01-09T23:28:47.852Z,1.13
2023-01-09T23:31:15.436Z,1.10
2023-01-09T23:33:41.995Z,0.95
2023-01-09T23:36:08.805Z,0.70
2023-01-09T23:38:35.371Z,0.90
2023-01-09T23:41:01.918Z,1.20
2023-01-09T23:43:28.484Z,1.05
2023-01-09T23:45:55.051Z,0.95
2023-01-09T23:48:21.624Z,0.90
2023-01-09T23:50:51.877Z,0.80
2023-01-09T23:53:20.313Z,0.60
2023-01-09T23:55:47.345Z,0.57
2023-01-09T23:58:14.213Z,0.82
